Time;durP1;ratioP1;P1;durP2;ratioP2;P2;SDS_P1;SDS_P2;PMS_P1;PMS_P2;Temp;Humidity;BMP_temperature;BMP_pressure;BME280_temperature;BME280_humidity;BME280_pressure;Samples;Min_cycle;Max_cycle;Signal;HPM_P1;HPM_P2
2023/01/28 00:01:26;;;;;;;16.40;7.97;;;;;;;3.01;100.00;102859.34;5245870;28;20021;-75
2023/01/28 00:03:57;;;;;;;15.63;7.88;;;;;;;2.97;100.00;102860.41;5259897;28;20040;-75
2023/01/28 00:06:27;;;;;;;14.57;7.88;;;;;;;2.98;100.00;102862.13;5245556;28;20052;-75
2023/01/28 00:08:58;;;;;;;15.23;8.05;;;;;;;2.96;100.00;102861.34;5246937;28;20016;-75
2023/01/28 00:11:28;;;;;;;20.17;10.27;;;;;;;2.95;100.00;102858.75;5246930;28;20051;-75
2023/01/28 00:13:59;;;;;;;20.25;9.65;;;;;;;2.94;100.00;102870.28;5245581;28;20360;-75
2023/01/28 00:16:30;;;;;;;19.35;9.52;;;;;;;2.92;100.00;102858.88;5262455;28;20028;-75
2023/01/28 00:19:00;;;;;;;20.40;10.57;;;;;;;2.89;100.00;102854.56;5253811;28;20024;-75
2023/01/28 00:21:30;;;;;;;19.90;9.70;;;;;;;2.89;100.00;102859.00;5252813;28;20028;-75
2023/01/28 00:24:01;;;;;;;21.80;9.88;;;;;;;2.90;100.00;102863.38;5245446;28;20082;-74
2023/01/28 00:26:31;;;;;;;21.30;10.43;;;;;;;2.90;100.00;102860.72;5258455;28;20032;-74
2023/01/28 00:29:02;;;;;;;22.98;10.55;;;;;;;2.87;100.00;102861.75;5246271;28;20099;-74
2023/01/28 00:31:34;;;;;;;24.00;10.40;;;;;;;2.87;100.00;102858.22;5246216;28;20032;-74
2023/01/28 00:34:04;;;;;;;23.75;11.27;;;;;;;2.85;100.00;102852.97;5245755;28;20031;-75
2023/01/28 00:36:38;;;;;;;23.02;10.88;;;;;;;2.83;100.00;102857.50;5246306;28;20032;-74
2023/01/28 00:39:14;;;;;;;22.60;11.90;;;;;;;2.80;100.00;102860.28;5246572;28;20030;-74
2023/01/28 00:41:44;;;;;;;21.83;10.57;;;;;;;2.81;100.00;102865.53;5246099;28;20074;-74
2023/01/28 00:44:15;;;;;;;21.42;10.88;;;;;;;2.80;100.00;102866.44;5246436;28;20056;-74
2023/01/28 00:46:45;;;;;;;24.83;11.95;;;;;;;2.79;100.00;102870.00;5244593;28;20028;-74
2023/01/28 00:49:16;;;;;;;22.30;11.05;;;;;;;2.79;100.00;102863.84;5261531;28;20031;-75
2023/01/28 00:51:47;;;;;;;23.65;11.57;;;;;;;2.78;100.00;102867.44;5256973;28;20020;-74
2023/01/28 00:54:18;;;;;;;22.73;10.95;;;;;;;2.76;100.00;102878.13;5248188;28;20480;-74
2023/01/28 00:56:48;;;;;;;25.10;11.88;;;;;;;2.76;100.00;102875.47;5255461;28;20078;-74
2023/01/28 00:59:19;;;;;;;25.20;11.43;;;;;;;2.75;100.00;102871.06;5250671;28;20047;-74
2023/01/28 01:01:49;;;;;;;25.42;11.13;;;;;;;2.75;100.00;102872.84;5254137;28;20374;-75
2023/01/28 01:04:25;;;;;;;22.45;10.85;;;;;;;2.74;100.00;102874.66;5244771;28;20138;-74
2023/01/28 01:06:55;;;;;;;24.30;11.13;;;;;;;2.74;100.00;102874.66;5243618;28;20028;-74
2023/01/28 01:09:26;;;;;;;22.95;10.43;;;;;;;2.74;100.00;102874.66;5244324;28;20017;-74
2023/01/28 01:11:56;;;;;;;23.63;11.50;;;;;;;2.75;100.00;102883.47;5245379;28;20612;-74
2023/01/28 01:14:27;;;;;;;26.67;12.68;;;;;;;2.73;100.00;102880.88;5245453;28;20491;-74
2023/01/28 01:16:57;;;;;;;21.92;10.38;;;;;;;2.72;100.00;102887.13;5261447;28;20055;-74
2023/01/28 01:19:28;;;;;;;23.33;10.95;;;;;;;2.71;100.00;102885.41;5256263;28;20024;-74
2023/01/28 01:22:00;;;;;;;23.75;10.93;;;;;;;2.70;100.00;102886.31;5247942;28;20059;-74
2023/01/28 01:24:32;;;;;;;25.65;11.77;;;;;;;2.69;100.00;102887.25;5245533;28;20492;-75
2023/01/28 01:27:04;;;;;;;23.67;11.30;;;;;;;2.68;100.00;102890.81;5244857;28;20029;-75
2023/01/28 01:29:35;;;;;;;24.13;11.68;;;;;;;2.70;100.00;102885.44;5245082;28;20484;-74
2023/01/28 01:32:06;;;;;;;24.75;11.52;;;;;;;2.70;100.00;102891.59;5265124;28;20031;-75
2023/01/28 01:34:36;;;;;;;22.95;10.75;;;;;;;2.69;100.00;102891.69;5251118;28;20035;-74
2023/01/28 01:37:07;;;;;;;26.95;12.45;;;;;;;2.67;100.00;102890.91;5245114;28;20028;-74
2023/01/28 01:39:38;;;;;;;27.23;11.32;;;;;;;2.64;100.00;102891.88;5246168;28;20099;-74
2023/01/28 01:42:12;;;;;;;26.33;11.38;;;;;;;2.63;100.00;102887.50;5255968;28;20020;-75
2023/01/28 01:45:01;;;;;;;25.45;10.32;;;;;;;2.66;100.00;102889.16;5244668;28;20035;-75
2023/01/28 01:47:44;;;;;;;25.67;11.57;;;;;;;2.65;100.00;102887.44;5244442;28;20029;-75
2023/01/28 01:50:30;;;;;;;25.85;11.50;;;;;;;2.65;100.00;102885.66;5244695;28;20025;-75
2023/01/28 01:53:09;;;;;;;30.80;10.45;;;;;;;2.66;100.00;102883.84;5243536;28;20059;-75
2023/01/28 01:55:44;;;;;;;25.17;11.05;;;;;;;2.65;100.00;102876.84;5245029;28;20051;-75
2023/01/28 01:58:18;;;;;;;28.30;13.23;;;;;;;2.62;100.00;102884.94;5244233;28;20429;-75
2023/01/28 02:00:49;;;;;;;24.60;11.40;;;;;;;2.60;100.00;102885.84;5245510;28;20098;-75
2023/01/28 02:03:27;;;;;;;26.10;11.18;;;;;;;2.59;100.00;102892.06;5256599;28;20020;-75
2023/01/28 02:05:58;;;;;;;22.80;10.55;;;;;;;2.59;100.00;102892.06;5246056;28;20035;-75
2023/01/28 02:08:29;;;;;;;26.00;11.85;;;;;;;2.60;100.00;102890.28;5244649;28;20020;-75
2023/01/28 02:11:05;;;;;;;25.38;10.60;;;;;;;2.59;100.00;102888.56;5244650;28;20025;-75
2023/01/28 02:13:55;;;;;;;25.73;11.15;;;;;;;2.57;100.00;102883.34;5244817;28;20023;-75
2023/01/28 02:16:27;;;;;;;24.15;11.10;;;;;;;2.57;100.00;102891.28;5247985;28;20400;-75
2023/01/28 02:18:57;;;;;;;24.00;10.07;;;;;;;2.56;100.00;102886.91;5245401;28;20086;-75
2023/01/28 02:22:00;;;;;;;25.92;10.98;;;;;;;2.55;100.00;102889.59;5243332;28;20025;-75
2023/01/28 02:24:46;;;;;;;26.60;11.88;;;;;;;2.55;100.00;102887.81;5252631;28;20473;-75
2023/01/28 02:27:30;;;;;;;27.30;11.15;;;;;;;2.55;100.00;102886.97;5245144;28;20029;-75
2023/01/28 02:30:24;;;;;;;25.07;12.20;;;;;;;2.53;100.00;102883.53;5244932;28;20016;-75
2023/01/28 02:33:28;;;;;;;23.73;10.10;;;;;;;2.51;100.00;102895.97;5244748;28;20028;-75
2023/01/28 02:36:07;;;;;;;22.73;10.43;;;;;;;2.52;100.00;102895.91;5245058;28;20024;-75
2023/01/28 02:38:44;;;;;;;24.73;10.48;;;;;;;2.51;100.00;102894.19;5245429;28;20016;-75
2023/01/28 02:41:23;;;;;;;24.33;10.73;;;;;;;2.49;100.00;102896.03;5244985;28;20100;-74
2023/01/28 02:43:53;;;;;;;26.02;10.68;;;;;;;2.49;100.00;102895.16;5243919;28;20025;-75
2023/01/28 02:49:20;;;;;;;23.67;9.85;;;;;;;2.47;100.00;102894.38;5244517;28;20035;-75
2023/01/28 02:52:12;;;;;;;26.67;11.05;;;;;;;2.46;100.00;102890.00;5244810;28;20074;-75
2023/01/28 02:54:56;;;;;;;21.92;10.13;;;;;;;2.45;100.00;102890.91;5243313;28;20032;-75
2023/01/28 02:57:32;;;;;;;24.92;11.23;;;;;;;2.41;100.00;102890.22;5246411;28;20023;-75
2023/01/28 03:00:03;;;;;;;22.65;10.07;;;;;;;2.39;100.00;102891.19;5260770;28;20055;-75
2023/01/28 03:02:49;;;;;;;27.77;11.90;;;;;;;2.37;100.00;102891.25;5251063;28;20072;-75
2023/01/28 03:05:27;;;;;;;22.58;9.90;;;;;;;2.32;100.00;102891.44;5248090;28;20024;-75
2023/01/28 03:07:58;;;;;;;21.83;9.82;;;;;;;2.32;100.00;102894.09;5256553;28;20472;-75
2023/01/28 03:10:29;;;;;;;23.67;10.30;;;;;;;2.33;100.00;102898.47;5251520;28;20017;-75
2023/01/28 03:39:17;;;;;;;27.35;12.10;;;;;;;2.27;100.00;102930.50;5248025;28;20052;-75
2023/01/28 03:42:16;;;;;;;25.45;11.68;;;;;;;2.27;100.00;102924.34;5255105;28;20501;-75
2023/01/28 03:44:54;;;;;;;26.17;10.52;;;;;;;2.28;100.00;102926.06;5250887;28;20048;-74
2023/01/28 03:47:29;;;;;;;25.23;10.77;;;;;;;2.27;100.00;102930.50;5253246;28;20031;-74
2023/01/28 03:50:00;;;;;;;22.75;10.35;;;;;;;2.28;100.00;102928.72;5247294;28;20461;-75
2023/01/28 03:52:32;;;;;;;21.58;10.45;;;;;;;2.26;100.00;102920.84;5247354;28;20103;-75
2023/01/28 03:55:12;;;;;;;29.13;12.07;;;;;;;2.26;100.00;102923.47;5246179;28;20024;-75
2023/01/28 03:57:43;;;;;;;24.48;11.27;;;;;;;2.27;100.00;102930.50;5247351;28;20111;-74
2023/01/28 04:00:17;;;;;;;26.65;11.23;;;;;;;2.28;100.00;102918.97;5249021;28;20025;-75
2023/01/28 04:02:47;;;;;;;22.45;9.75;;;;;;;2.29;100.00;102917.19;5254366;28;20411;-75
2023/01/28 04:05:19;;;;;;;25.15;10.77;;;;;;;2.26;100.00;102919.94;5253798;28;20021;-75
2023/01/28 04:07:50;;;;;;;24.23;10.52;;;;;;;2.26;100.00;102927.88;5245359;28;20615;-74
2023/01/28 04:10:21;;;;;;;21.73;10.15;;;;;;;2.25;100.00;102916.44;5246336;28;20030;-74
2023/01/28 04:12:53;;;;;;;21.63;10.57;;;;;;;2.26;100.00;102922.59;5247632;28;20024;-74
2023/01/28 04:15:23;;;;;;;22.98;10.35;;;;;;;2.24;100.00;102922.66;5254206;28;20026;-74
2023/01/28 04:17:53;;;;;;;22.30;9.73;;;;;;;2.21;100.00;102933.41;5267731;28;20016;-74
2023/01/28 04:20:24;;;;;;;24.15;10.70;;;;;;;2.22;100.00;102940.41;5248739;28;20074;-74
2023/01/28 04:22:54;;;;;;;23.75;10.43;;;;;;;2.23;100.00;102944.78;5259959;28;20028;-74
2023/01/28 04:25:25;;;;;;;20.55;10.02;;;;;;;2.23;100.00;102951.88;5247679;28;20024;-75
2023/01/28 04:27:55;;;;;;;22.38;10.30;;;;;;;2.21;100.00;102940.44;5246627;28;20107;-74
2023/01/28 04:30:26;;;;;;;21.92;9.90;;;;;;;2.22;100.00;102947.50;5246404;28;20024;-74
2023/01/28 04:32:57;;;;;;;20.83;9.93;;;;;;;2.24;100.00;102940.34;5246336;28;20032;-75
2023/01/28 04:35:27;;;;;;;20.60;9.57;;;;;;;2.18;100.00;102944.09;5246736;28;20108;-74
2023/01/28 04:37:58;;;;;;;22.65;10.13;;;;;;;2.16;100.00;102940.66;5259857;28;20111;-75
2023/01/28 04:40:28;;;;;;;22.58;10.13;;;;;;;2.12;100.00;102938.19;5246110;28;20066;-75
2023/01/28 04:42:59;;;;;;;22.85;10.43;;;;;;;2.13;100.00;102945.22;5246238;28;20020;-75
2023/01/28 04:45:29;;;;;;;19.92;9.25;;;;;;;2.17;100.00;102944.19;5245134;28;20039;-75
2023/01/28 04:48:00;;;;;;;22.67;10.02;;;;;;;2.14;100.00;102942.50;5245781;28;20074;-75
2023/01/28 04:50:30;;;;;;;20.83;9.48;;;;;;;2.12;100.00;102944.34;5246494;28;20052;-75
2023/01/28 04:53:01;;;;;;;23.60;10.55;;;;;;;2.08;100.00;102933.00;5244800;28;20026;-75
2023/01/28 04:55:31;;;;;;;22.40;10.18;;;;;;;2.08;100.00;102940.09;5245950;28;20028;-75
2023/01/28 04:58:02;;;;;;;24.30;10.65;;;;;;;2.08;100.00;102946.25;5245793;28;20082;-75
2023/01/28 05:00:33;;;;;;;20.33;10.10;;;;;;;2.06;100.00;102949.91;5259130;28;20024;-75
2023/01/28 05:03:03;;;;;;;21.02;10.40;;;;;;;2.06;100.00;102941.94;5255398;28;20062;-75
2023/01/28 05:05:34;;;;;;;22.83;10.73;;;;;;;2.08;100.00;102953.34;5250113;28;20047;-75
2023/01/28 05:08:04;;;;;;;21.73;10.00;;;;;;;2.07;100.00;102954.25;5245531;28;20024;-74
2023/01/28 05:10:35;;;;;;;22.77;10.80;;;;;;;2.08;100.00;102951.53;5245717;28;20022;-74
2023/01/28 05:13:06;;;;;;;19.98;9.80;;;;;;;2.10;100.00;102953.25;5246084;28;20016;-74
2023/01/28 05:15:36;;;;;;;24.42;9.95;;;;;;;2.11;100.00;102940.00;5254593;28;20024;-74
2023/01/28 05:18:07;;;;;;;21.63;9.82;;;;;;;2.11;100.00;102945.28;5253367;28;20107;-75
2023/01/28 05:20:37;;;;;;;22.70;10.52;;;;;;;2.06;100.00;102944.59;5244823;28;20481;-75
2023/01/28 05:23:07;;;;;;;22.25;10.20;;;;;;;2.04;100.00;102946.44;5245453;28;20024;-75
2023/01/28 05:25:38;;;;;;;20.67;9.90;;;;;;;2.01;100.00;102943.91;5245554;28;20027;-75
2023/01/28 05:28:08;;;;;;;23.48;10.55;;;;;;;1.97;100.00;102944.94;5246708;28;20515;-74
2023/01/28 05:30:39;;;;;;;23.50;9.75;;;;;;;1.96;100.00;102946.75;5257254;28;20044;-75
2023/01/28 05:33:09;;;;;;;20.73;9.50;;;;;;;1.99;100.00;102951.03;5244074;28;20021;-74
2023/01/28 05:35:41;;;;;;;19.73;9.43;;;;;;;1.97;100.00;102953.75;5245404;28;20024;-75
2023/01/28 05:38:12;;;;;;;18.38;9.75;;;;;;;1.93;100.00;102946.84;5245079;28;20024;-75
2023/01/28 05:40:42;;;;;;;20.98;10.20;;;;;;;1.92;100.00;102952.22;5245134;28;20023;-75
2023/01/28 05:43:13;;;;;;;19.58;9.38;;;;;;;1.93;100.00;102946.00;5243975;28;20024;-75
2023/01/28 05:45:44;;;;;;;20.75;9.45;;;;;;;1.91;100.00;102950.47;5244968;28;20025;-75
2023/01/28 05:48:15;;;;;;;23.45;10.68;;;;;;;1.90;100.00;102951.38;5244691;28;20078;-75
2023/01/28 05:50:46;;;;;;;18.33;8.93;;;;;;;1.89;100.00;102945.22;5258410;28;20048;-74
2023/01/28 05:53:17;;;;;;;19.77;9.25;;;;;;;1.86;100.00;102942.72;5245011;28;20346;-75
2023/01/28 05:55:49;;;;;;;19.15;8.98;;;;;;;1.93;100.00;102956.56;5247606;28;20051;-75
2023/01/28 05:58:20;;;;;;;16.15;8.13;;;;;;;1.90;100.00;102960.19;5255617;28;20028;-75
2023/01/28 06:00:54;;;;;;;19.33;9.65;;;;;;;1.87;100.00;102949.75;5260164;28;20117;-74
2023/01/28 06:03:25;;;;;;;19.45;9.65;;;;;;;1.86;100.00;102961.25;5257425;28;20027;-74
2023/01/28 06:05:55;;;;;;;20.80;9.95;;;;;;;1.80;100.00;102959.66;5246310;28;20036;-75
2023/01/28 06:08:25;;;;;;;22.88;10.57;;;;;;;1.80;100.00;102964.09;5244610;28;20078;-76
2023/01/28 06:10:56;;;;;;;22.73;10.55;;;;;;;1.79;100.00;102967.69;5244618;28;20042;-74
2023/01/28 06:13:26;;;;;;;23.40;9.85;;;;;;;1.76;100.00;102968.69;5258799;28;20436;-75
2023/01/28 06:15:57;;;;;;;21.92;10.35;;;;;;;1.78;100.00;102964.19;5257401;28;20020;-75
2023/01/28 06:18:27;;;;;;;22.75;10.73;;;;;;;1.78;100.00;102963.31;5249612;28;20059;-74
2023/01/28 06:20:58;;;;;;;23.38;10.60;;;;;;;1.78;100.00;102963.31;5254245;28;20103;-75
2023/01/28 06:23:28;;;;;;;21.67;10.60;;;;;;;1.86;100.00;102965.66;5248370;28;20025;-74
2023/01/28 06:25:59;;;;;;;24.90;12.23;;;;;;;1.85;100.00;102978.03;5245191;28;20488;-74
2023/01/28 06:28:29;;;;;;;23.30;10.57;;;;;;;1.84;100.00;102978.09;5244860;28;20025;-75
2023/01/28 06:31:00;;;;;;;24.08;11.25;;;;;;;1.82;100.00;102980.81;5245724;28;20025;-74
2023/01/28 06:33:31;;;;;;;21.90;10.35;;;;;;;1.82;100.00;102978.16;5249111;28;20035;-74
2023/01/28 06:36:08;;;;;;;22.38;10.07;;;;;;;1.90;100.00;102980.50;5262787;28;20088;-74
2023/01/28 06:38:38;;;;;;;23.90;11.43;;;;;;;1.87;100.00;102986.78;5262676;28;20048;-74
2023/01/28 06:41:08;;;;;;;22.83;11.18;;;;;;;1.82;100.00;102986.09;5249081;28;20067;-75
2023/01/28 06:43:39;;;;;;;24.63;10.00;;;;;;;1.79;100.00;102981.78;5248900;28;20346;-75
2023/01/28 06:46:09;;;;;;;26.05;11.95;;;;;;;1.82;100.00;102978.16;5248556;28;20141;-75
2023/01/28 06:48:40;;;;;;;23.65;11.10;;;;;;;1.86;100.00;102989.47;5259030;28;20031;-75
2023/01/28 06:51:10;;;;;;;25.20;11.43;;;;;;;1.83;100.00;102994.91;5250826;28;20096;-74
2023/01/28 06:53:41;;;;;;;26.95;12.55;;;;;;;1.81;100.00;102987.91;5248682;28;20085;-75
2023/01/28 06:56:11;;;;;;;25.63;10.80;;;;;;;1.80;100.00;102996.72;5247213;28;20020;-75
2023/01/28 06:58:42;;;;;;;25.42;12.20;;;;;;;1.75;100.00;102987.22;5246971;28;20028;-75
2023/01/28 07:01:12;;;;;;;25.30;11.90;;;;;;;1.74;100.00;102994.31;5261527;28;20017;-75
2023/01/28 07:03:43;;;;;;;25.38;11.65;;;;;;;1.77;100.00;102994.22;5259907;28;20372;-75
2023/01/28 07:06:13;;;;;;;28.73;12.15;;;;;;;1.75;100.00;102988.09;5246797;28;20806;-75
2023/01/28 07:08:44;;;;;;;26.58;11.70;;;;;;;1.77;100.00;102990.72;5246479;28;20031;-75
2023/01/28 07:11:15;;;;;;;27.20;12.55;;;;;;;1.71;100.00;102991.81;5245551;28;20024;-75
2023/01/28 07:13:46;;;;;;;29.83;13.15;;;;;;;1.74;100.00;103001.41;5245732;28;20107;-74
2023/01/28 07:16:17;;;;;;;26.10;11.98;;;;;;;1.72;100.00;103001.47;5261590;28;20028;-75
2023/01/28 07:18:47;;;;;;;30.70;12.32;;;;;;;1.74;100.00;102994.31;5249125;28;20020;-75
2023/01/28 07:21:18;;;;;;;25.92;11.27;;;;;;;1.71;100.00;102994.44;5245393;28;20033;-75
2023/01/28 07:23:50;;;;;;;27.42;12.30;;;;;;;1.68;100.00;103004.28;5259888;28;20028;-75
2023/01/28 07:26:21;;;;;;;27.10;12.18;;;;;;;1.70;100.00;103005.94;5259859;28;20065;-75
2023/01/28 07:28:51;;;;;;;28.25;13.50;;;;;;;1.72;100.00;102997.94;5260474;28;20028;-75
2023/01/28 07:31:22;;;;;;;24.70;11.35;;;;;;;1.68;100.00;102999.84;5246458;28;20021;-76
2023/01/28 07:33:52;;;;;;;25.92;12.05;;;;;;;1.67;100.00;102997.25;5246961;28;20024;-75
2023/01/28 07:36:23;;;;;;;29.77;13.10;;;;;;;1.67;100.00;103002.56;5245948;28;20111;-74
2023/01/28 07:38:53;;;;;;;31.33;13.20;;;;;;;1.68;100.00;103010.44;5246824;28;20027;-75
2023/01/28 07:41:23;;;;;;;26.92;11.77;;;;;;;1.69;100.00;103014.78;5246439;28;20038;-75
2023/01/28 07:43:54;;;;;;;30.65;13.35;;;;;;;1.73;100.00;103007.59;5246525;28;20096;-75
2023/01/28 07:46:25;;;;;;;26.15;11.57;;;;;;;1.73;100.00;103011.13;5244590;28;20024;-75
2023/01/28 07:48:55;;;;;;;26.88;11.55;;;;;;;1.70;100.00;103018.28;5246611;28;20127;-75
2023/01/28 07:51:26;;;;;;;27.88;12.10;;;;;;;1.72;100.00;103013.84;5246242;28;20047;-75
2023/01/28 07:53:56;;;;;;;29.90;13.00;;;;;;;1.73;100.00;103016.41;5246304;28;20032;-75
2023/01/28 07:56:30;;;;;;;31.95;13.20;;;;;;;1.67;100.00;103014.00;5246275;28;20028;-74
2023/01/28 07:59:01;;;;;;;31.52;13.27;;;;;;;1.62;100.00;103021.25;5249612;28;20012;-75
2023/01/28 08:01:31;;;;;;;30.70;13.73;;;;;;;1.62;100.00;103015.94;5247307;28;20039;-74
2023/01/28 08:04:01;;;;;;;31.30;14.32;;;;;;;1.63;100.00;103016.81;5258065;28;20441;-75
2023/01/28 08:06:36;;;;;;;33.22;13.18;;;;;;;1.65;100.00;103022.91;5243523;28;20107;-74
2023/01/28 08:09:07;;;;;;;30.27;12.88;;;;;;;1.68;100.00;103015.72;5251490;28;20438;-74
2023/01/28 08:11:38;;;;;;;27.73;12.07;;;;;;;1.68;100.00;103020.16;5254493;28;20070;-75
2023/01/28 08:14:10;;;;;;;26.83;12.60;;;;;;;1.73;100.00;103036.72;5247071;28;20099;-75
2023/01/28 08:16:41;;;;;;;28.98;12.82;;;;;;;1.70;100.00;103037.69;5263535;28;20050;-74
2023/01/28 08:19:11;;;;;;;27.55;12.25;;;;;;;1.74;100.00;103030.50;5246992;28;20025;-75
2023/01/28 08:21:42;;;;;;;25.80;11.63;;;;;;;1.73;100.00;103039.38;5246743;28;20028;-74
2023/01/28 08:24:12;;;;;;;24.65;11.20;;;;;;;1.68;100.00;103033.38;5255936;28;20020;-75
2023/01/28 08:26:43;;;;;;;25.63;11.80;;;;;;;1.65;100.00;103036.13;5250180;28;20028;-75
2023/01/28 08:29:13;;;;;;;29.70;13.32;;;;;;;1.68;100.00;103036.88;5257806;28;20103;-75
2023/01/28 08:31:44;;;;;;;23.98;11.20;;;;;;;1.70;100.00;103045.63;5248766;28;20508;-75
2023/01/28 08:34:14;;;;;;;23.30;11.23;;;;;;;1.75;100.00;103054.25;5246765;28;20473;-75
2023/01/28 08:36:44;;;;;;;28.58;12.35;;;;;;;1.74;100.00;103062.25;5244381;28;20051;-75
2023/01/28 08:39:15;;;;;;;25.10;11.23;;;;;;;1.78;100.00;103064.75;5246480;28;20028;-75
2023/01/28 08:41:45;;;;;;;26.70;11.77;;;;;;;1.84;100.00;103061.00;5246529;28;20119;-75
2023/01/28 08:44:16;;;;;;;28.65;12.35;;;;;;;1.87;100.00;103070.63;5246431;28;20032;-75
2023/01/28 08:46:46;;;;;;;27.15;12.05;;;;;;;1.87;100.00;103081.22;5246453;28;20025;-75
2023/01/28 08:49:17;;;;;;;24.38;12.05;;;;;;;1.87;100.00;103078.56;5245773;28;21847;-75
2023/01/28 08:51:48;;;;;;;27.10;12.10;;;;;;;1.88;100.00;103077.66;5244956;28;20028;-75
2023/01/28 08:54:18;;;;;;;27.95;12.32;;;;;;;1.90;100.00;103089.91;5245459;28;20561;-75
2023/01/28 08:56:50;;;;;;;27.33;12.30;;;;;;;1.85;100.00;103083.91;5257655;28;20039;-75
2023/01/28 08:59:20;;;;;;;26.10;11.95;;;;;;;1.83;100.00;103088.41;5258185;28;20027;-75
2023/01/28 09:01:51;;;;;;;28.55;12.45;;;;;;;1.89;100.00;103084.66;5245732;28;20028;-75
2023/01/28 09:04:21;;;;;;;29.52;12.93;;;;;;;1.88;100.00;103094.41;5245684;28;20440;-75
2023/01/28 09:06:53;;;;;;;30.05;13.25;;;;;;;1.89;100.00;103093.47;5244131;28;20035;-75
2023/01/28 09:09:23;;;;;;;32.80;13.63;;;;;;;1.88;100.00;103093.53;5245783;28;20032;-75
2023/01/28 09:11:54;;;;;;;32.70;13.68;;;;;;;1.92;100.00;103092.50;5245232;28;20047;-75
2023/01/28 09:14:24;;;;;;;30.10;12.48;;;;;;;1.98;100.00;103087.00;5245856;28;20400;-74
2023/01/28 09:16:55;;;;;;;32.83;14.15;;;;;;;1.99;100.00;103084.28;5262278;28;20028;-75
2023/01/28 09:19:25;;;;;;;31.23;13.73;;;;;;;2.02;100.00;103093.91;5245685;28;20392;-75
2023/01/28 09:21:56;;;;;;;28.35;13.45;;;;;;;2.05;100.00;103099.06;5245435;28;20032;-75
2023/01/28 09:24:26;;;;;;;25.90;11.63;;;;;;;1.97;100.00;103102.00;5245529;28;20026;-75
2023/01/28 09:26:57;;;;;;;28.48;12.48;;;;;;;1.98;100.00;103097.56;5245189;28;20115;-75
2023/01/28 09:29:27;;;;;;;28.67;13.05;;;;;;;2.03;100.00;103100.91;5245870;28;20094;-74
2023/01/28 09:31:58;;;;;;;30.08;13.65;;;;;;;2.16;100.00;103110.16;5257632;28;20386;-75
2023/01/28 09:34:28;;;;;;;27.63;13.57;;;;;;;2.18;100.00;103099.50;5245412;28;20476;-75
2023/01/28 09:36:59;;;;;;;29.88;14.00;;;;;;;2.16;100.00;103102.22;5252863;28;20034;-75
2023/01/28 09:39:30;;;;;;;32.78;14.80;;;;;;;2.19;100.00;103093.25;5263447;28;20516;-75
2023/01/28 09:42:18;;;;;;;34.15;14.63;;;;;;;2.20;100.00;103097.63;5245648;28;20025;-75
2023/01/28 09:45:01;;;;;;;36.55;15.10;;;;;;;2.18;100.00;103089.75;5242510;28;20036;-75
2023/01/28 09:47:57;;;;;;;32.47;13.88;;;;;;;2.21;100.00;103087.00;5244698;28;20028;-75
2023/01/28 09:50:32;;;;;;;35.55;15.75;;;;;;;2.25;100.00;103104.50;5249427;28;20037;-75
2023/01/28 09:53:18;;;;;;;;;;;;;;;2.28;100.00;103111.47;5246449;28;20024;-75
2023/01/28 09:55:55;;;;;;;27.40;12.43;;;;;;;2.32;100.00;103111.31;5259162;28;19908;-75
2023/01/28 09:58:26;;;;;;;27.33;12.63;;;;;;;2.37;100.00;103123.50;5245673;28;20539;-75
2023/01/28 10:01:08;;;;;;;27.70;12.63;;;;;;;2.45;100.00;103118.78;5258528;28;20024;-75
2023/01/28 10:03:54;;;;;;;32.13;14.13;;;;;;;2.51;100.00;103124.72;5258250;28;20101;-75
2023/01/28 10:06:38;;;;;;;;;;;;;;;2.52;100.00;103125.59;5244445;28;20086;-75
2023/01/28 10:09:21;;;;;;;34.05;15.43;;;;;;;2.54;100.00;103124.59;5245483;28;19904;-75
2023/01/28 10:11:55;;;;;;;28.23;13.13;;;;;;;2.53;100.00;103122.88;5245133;28;20039;-75
2023/01/28 10:14:48;;;;;;;32.83;14.30;;;;;;;2.60;100.00;103127.00;5255060;28;20020;-75
2023/01/28 10:17:25;;;;;;;33.75;14.05;;;;;;;2.68;100.00;103125.84;5258109;28;20424;-75
2023/01/28 10:20:20;;;;;;;27.27;12.98;;;;;;;2.63;100.00;103118.06;5244880;28;20369;-75
2023/01/28 10:23:09;;;;;;;25.20;11.95;;;;;;;2.64;100.00;103124.25;5243654;28;20067;-75
2023/01/28 10:25:43;;;;;;;25.83;12.07;;;;;;;2.66;100.00;103128.56;5254606;28;20113;-75
2023/01/28 10:28:21;;;;;;;26.48;12.73;;;;;;;2.72;100.00;103133.63;5249176;28;20020;-75
2023/01/28 10:30:51;;;;;;;27.65;11.77;;;;;;;2.67;100.00;103125.00;5245295;28;20075;-75
2023/01/28 10:33:36;;;;;;;30.02;13.52;;;;;;;2.58;100.00;103125.34;5258519;28;20511;-75
2023/01/28 10:36:08;;;;;;;31.77;12.95;;;;;;;2.61;100.00;103130.53;5245651;28;20115;-75
2023/01/28 10:38:39;;;;;;;26.17;12.77;;;;;;;2.46;100.00;103124.03;5253273;28;20097;-75
2023/01/28 10:41:16;;;;;;;25.85;12.43;;;;;;;2.49;100.00;103123.91;5249781;28;20028;-75
2023/01/28 10:43:48;;;;;;;30.83;13.52;;;;;;;2.53;100.00;103125.50;5243722;28;20135;-75
2023/01/28 10:46:28;;;;;;;29.45;13.32;;;;;;;2.60;100.00;103128.78;5245151;28;20028;-75
2023/01/28 10:49:12;;;;;;;30.20;13.38;;;;;;;2.69;100.00;103127.56;5258723;28;20116;-75
2023/01/28 10:51:43;;;;;;;27.95;12.48;;;;;;;2.74;100.00;103122.94;5256112;28;20066;-75
2023/01/28 10:54:25;;;;;;;28.30;13.13;;;;;;;2.77;100.00;103131.66;5243655;28;20028;-75
2023/01/28 10:57:02;;;;;;;30.63;13.63;;;;;;;2.82;100.00;103120.88;5250001;28;20234;-75
2023/01/28 10:59:35;;;;;;;27.13;12.85;;;;;;;2.90;100.00;103125.84;5254358;28;20146;-76
2023/01/28 11:02:18;;;;;;;29.75;12.95;;;;;;;2.99;100.00;103125.50;5247315;28;20025;-75
2023/01/28 11:05:14;;;;;;;31.23;13.27;;;;;;;2.84;100.00;103126.97;5256403;28;20024;-75
2023/01/28 11:07:48;;;;;;;30.55;13.95;;;;;;;2.78;100.00;103119.25;5243523;28;20028;-75
2023/01/28 11:10:31;;;;;;;32.75;14.77;;;;;;;2.75;100.00;103128.19;5244059;28;20025;-75
2023/01/28 11:13:05;;;;;;;30.65;13.45;;;;;;;2.78;100.00;103122.78;5253821;28;20031;-75
2023/01/28 11:15:45;;;;;;;28.15;13.30;;;;;;;2.78;100.00;103120.13;5254107;28;20020;-75
2023/01/28 11:18:24;;;;;;;26.75;12.73;;;;;;;2.80;100.00;103122.72;5251661;28;20030;-74
2023/01/28 11:20:57;;;;;;;27.30;13.13;;;;;;;2.73;100.00;103127.41;5268372;28;20503;-75
2023/01/28 11:23:37;;;;;;;29.90;13.30;;;;;;;2.75;100.00;103128.19;5250400;28;20039;-75
2023/01/28 11:26:16;;;;;;;27.13;13.15;;;;;;;2.77;100.00;103126.34;5246596;28;20038;-75
2023/01/28 11:28:47;;;;;;;29.10;13.20;;;;;;;2.81;100.00;103122.66;5253358;28;20485;-75
2023/01/28 11:31:20;;;;;;;36.00;14.10;;;;;;;2.80;100.00;103120.91;5252608;28;20024;-75
2023/01/28 11:33:53;;;;;;;33.13;14.80;;;;;;;2.87;100.00;103126.88;5256618;28;20027;-75
2023/01/28 11:36:26;;;;;;;34.60;15.23;;;;;;;2.91;100.00;103111.66;5253302;28;20032;-74
2023/01/28 11:39:00;;;;;;;33.78;14.98;;;;;;;2.82;100.00;103104.97;5256087;28;20022;-75
2023/01/28 11:41:35;;;;;;;31.92;14.68;;;;;;;2.81;100.00;103108.53;5260318;28;20157;-75
2023/01/28 11:44:32;;;;;;;32.17;14.95;;;;;;;2.75;100.00;103099.03;5246473;28;20079;-74
2023/01/28 11:47:21;;;;;;;34.75;14.45;;;;;;;2.67;100.00;103094.97;5255383;28;20047;-75
2023/01/28 11:50:23;;;;;;;34.33;15.45;;;;;;;2.65;100.00;103080.91;5246581;28;20029;-75
2023/01/28 11:53:01;;;;;;;35.88;15.90;;;;;;;2.71;100.00;103078.00;5253252;28;20423;-75
2023/01/28 11:55:44;;;;;;;35.72;14.98;;;;;;;2.81;100.00;103084.66;5254142;28;20024;-75
2023/01/28 11:58:27;;;;;;;35.10;15.18;;;;;;;2.92;100.00;103071.00;5256007;28;20033;-75
2023/01/28 12:01:13;;;;;;;36.58;14.95;;;;;;;3.04;100.00;103068.69;5260362;28;20494;-75
2023/01/28 12:03:46;;;;;;;;;;;;;;;3.01;100.00;103070.59;5264335;28;20034;-75
2023/01/28 12:06:36;;;;;;;33.38;14.35;;;;;;;2.98;100.00;103058.34;5271409;28;19916;-75
2023/01/28 12:09:17;;;;;;;34.22;15.18;;;;;;;3.04;100.00;103051.91;5250074;28;20032;-75
2023/01/28 12:12:18;;;;;;;26.42;12.32;;;;;;;3.11;100.00;103056.03;5262810;28;20044;-75